createdAt,value
2022-12-04T00:55:07.257Z,96327.25
2022-12-04T01:26:06.397Z,96302.00
2022-12-04T02:46:57.016Z,96283.13
2022-12-04T03:07:36.621Z,96297.78
2022-12-04T03:12:43.486Z,96299.31
2022-12-04T03:17:52.941Z,96287.59
2022-12-04T03:22:54.375Z,96280.09
2022-12-04T03:28:03.548Z,96279.91
2022-12-04T03:33:23.431Z,96290.31
2022-12-04T03:38:42.159Z,96271.28
2022-12-04T03:43:53.902Z,96259.25
2022-12-04T03:49:08.573Z,96271.59
2022-12-04T03:54:10.117Z,96269.38
2022-12-04T03:59:25.824Z,96286.06
2022-12-04T04:04:30.420Z,96294.13
2022-12-04T04:09:26.532Z,96290.25
2022-12-04T04:14:45.570Z,96285.75
2022-12-04T04:19:59.047Z,96272.47
2022-12-04T04:25:18.967Z,96278.25
2022-12-04T04:30:10.890Z,96279.59
2022-12-04T04:35:20.932Z,96269.47
2022-12-04T04:40:30.629Z,96271.59
2022-12-04T04:45:39.403Z,96269.44
2022-12-04T04:50:35.104Z,96292.75
2022-12-04T04:55:28.457Z,96276.69
2022-12-04T05:00:23.544Z,96273.00
2022-12-04T05:05:16.852Z,96273.88
2022-12-04T05:10:10.814Z,96280.22
2022-12-04T05:15:03.072Z,96278.84
2022-12-04T05:25:02.479Z,96272.25
2022-12-04T05:30:04.490Z,96287.34
2022-12-04T05:34:58.245Z,96283.72
2022-12-04T05:39:50.841Z,96286.84
2022-12-04T05:44:43.580Z,96281.06
2022-12-04T05:54:42.523Z,96291.28
2022-12-04T05:59:35.781Z,96287.53
2022-12-04T06:04:27.933Z,96290.66
2022-12-04T06:09:20.118Z,96293.25
2022-12-04T06:14:16.143Z,96302.75
2022-12-04T06:19:20.869Z,96298.44
2022-12-04T06:24:20.761Z,96289.34
2022-12-04T06:29:13.776Z,96295.28
2022-12-04T06:34:10.351Z,96296.16
2022-12-04T06:39:04.370Z,96291.00
2022-12-04T06:43:58.010Z,96310.28
2022-12-04T06:48:54.592Z,96308.56
2022-12-04T06:53:47.438Z,96309.22
2022-12-04T06:58:39.472Z,96311.25
2022-12-04T07:03:31.900Z,96318.50
2022-12-04T07:08:24.198Z,96315.44
2022-12-04T07:13:16.611Z,96311.28
2022-12-04T07:18:08.774Z,96320.19
2022-12-04T07:23:06.902Z,96305.09
2022-12-04T07:27:59.724Z,96307.63
2022-12-04T07:32:59.321Z,96311.50
2022-12-04T07:37:51.523Z,96308.38
2022-12-04T07:42:43.385Z,96316.44
2022-12-04T07:47:38.726Z,96323.09
2022-12-04T07:52:31.204Z,96327.59
2022-12-04T07:57:24.021Z,96327.03
2022-12-04T08:02:17.663Z,96322.72
2022-12-04T08:07:15.380Z,96320.19
2022-12-04T08:12:11.666Z,96312.91
2022-12-04T08:17:04.664Z,96313.63
2022-12-04T08:21:58.279Z,96322.09
2022-12-04T08:26:50.408Z,96336.16
2022-12-04T08:31:50.243Z,96325.56
2022-12-04T08:36:49.472Z,96328.38
2022-12-04T08:41:43.559Z,96329.91
2022-12-04T08:51:46.064Z,96328.63
2022-12-04T08:56:42.452Z,96324.31
2022-12-04T09:01:34.820Z,96323.94
2022-12-04T09:06:28.636Z,96331.28
2022-12-04T09:16:37.692Z,96309.41
2022-12-04T09:26:36.731Z,96321.72
2022-12-04T09:31:29.592Z,96331.19
2022-12-04T09:36:23.915Z,96341.63
2022-12-04T09:41:47.949Z,96350.69
2022-12-04T09:52:09.787Z,96308.75
2022-12-04T09:57:16.356Z,96296.34
2022-12-04T10:02:40.556Z,96300.31
2022-12-04T10:07:49.407Z,96306.16
2022-12-04T10:13:17.995Z,96322.97
2022-12-04T10:18:42.157Z,96322.13
2022-12-04T10:24:22.730Z,96318.56
2022-12-04T10:34:32.705Z,96312.19
2022-12-04T10:39:53.969Z,96293.72
2022-12-04T10:44:57.916Z,96268.47
2022-12-04T10:50:02.151Z,96282.84
2022-12-04T10:55:04.766Z,96269.25
2022-12-04T10:59:57.752Z,96260.53
2022-12-04T11:05:04.208Z,96257.84
2022-12-04T11:10:09.543Z,96245.84
2022-12-04T11:20:29.801Z,96264.94
2022-12-04T11:25:33.069Z,96258.78
2022-12-04T11:30:52.846Z,96251.06
2022-12-04T11:35:54.842Z,96248.69
2022-12-04T11:40:52.828Z,96235.53
2022-12-04T11:46:07.453Z,96234.53
2022-12-04T11:51:41.040Z,96249.13
2022-12-04T11:56:41.127Z,96247.25
2022-12-04T12:02:04.076Z,96268.22
2022-12-04T12:12:47.533Z,96273.59
2022-12-04T12:18:04.240Z,96253.22
2022-12-04T12:22:56.006Z,96244.63
2022-12-04T12:28:38.637Z,96223.88
2022-12-04T12:33:42.795Z,96218.34
2022-12-04T12:38:49.620Z,96227.94
2022-12-04T12:43:54.771Z,96233.53
2022-12-04T12:49:09.572Z,96241.69
2022-12-04T12:54:18.427Z,96243.69
2022-12-04T12:59:20.982Z,96236.31
2022-12-04T13:04:39.753Z,96231.13
2022-12-04T13:09:44.934Z,96233.72
2022-12-04T13:14:37.490Z,96233.34
2022-12-04T13:25:19.056Z,96249.03
2022-12-04T13:36:02.476Z,96256.84
2022-12-04T13:41:09.955Z,96259.47
2022-12-04T13:46:29.237Z,96251.47
2022-12-04T13:51:42.661Z,96253.47
2022-12-04T13:56:35.743Z,96243.72
2022-12-04T14:01:45.075Z,96240.31
2022-12-04T14:06:52.694Z,96226.72
2022-12-04T14:11:59.406Z,96218.31
2022-12-04T14:27:44.715Z,96212.97
2022-12-04T14:32:38.322Z,96223.13
2022-12-04T14:37:40.724Z,96223.16
2022-12-04T14:42:51.091Z,96225.75
2022-12-04T14:48:10.025Z,96227.16
2022-12-04T14:53:29.086Z,96227.16
2022-12-04T14:58:38.719Z,96222.34
2022-12-04T15:03:40.864Z,96236.75
2022-12-04T15:08:35.087Z,96222.34
2022-12-04T15:13:30.094Z,96224.53
2022-12-04T15:18:24.106Z,96221.34
2022-12-04T15:23:29.002Z,96226.53
2022-12-04T15:28:52.377Z,96228.13
2022-12-04T15:33:48.803Z,96238.13
2022-12-04T15:38:45.585Z,96241.09
2022-12-04T15:43:45.178Z,96236.69
2022-12-04T15:48:40.023Z,96233.31
2022-12-04T15:53:40.668Z,96232.72
2022-12-04T16:09:27.265Z,96245.06
2022-12-04T16:14:21.879Z,96250.84
2022-12-04T16:24:49.323Z,96247.66
2022-12-04T16:29:54.911Z,96261.41
2022-12-04T16:39:55.210Z,96249.84
2022-12-04T16:49:53.568Z,96253.84
2022-12-04T16:59:51.757Z,96250.47
2022-12-04T17:04:44.211Z,96249.84
2022-12-04T17:09:40.525Z,96252.28
2022-12-04T17:19:38.428Z,96272.81
2022-12-04T17:24:30.536Z,96256.63
2022-12-04T17:29:23.024Z,96269.41
2022-12-04T17:34:18.568Z,96275.31
2022-12-04T17:39:12.017Z,96284.66
2022-12-04T17:44:05.029Z,96298.03
2022-12-04T17:49:02.604Z,96301.66
2022-12-04T17:54:01.071Z,96316.09
2022-12-04T17:58:58.692Z,96314.50
2022-12-04T18:09:01.055Z,96328.03
2022-12-04T18:19:16.936Z,96336.84
2022-12-04T18:24:20.345Z,96348.06
2022-12-04T18:34:27.857Z,96354.44
2022-12-04T18:39:24.569Z,96351.22
2022-12-04T18:44:19.241Z,96372.00
2022-12-04T18:49:14.173Z,96373.19
2022-12-04T18:54:12.416Z,96364.19
2022-12-04T18:59:23.450Z,96376.44
2022-12-04T19:04:22.378Z,96370.63
2022-12-04T19:09:47.333Z,96377.41
2022-12-04T19:24:58.723Z,96395.97
2022-12-04T19:35:04.317Z,96403.75
2022-12-04T19:39:56.532Z,96396.34
2022-12-04T19:44:49.604Z,96396.50
2022-12-04T19:49:42.511Z,96403.50
2022-12-04T19:54:34.387Z,96434.84
2022-12-04T19:59:28.559Z,96427.84
2022-12-04T20:09:29.420Z,96439.25
2022-12-04T20:19:29.324Z,96425.94
2022-12-04T20:24:21.597Z,96424.53
2022-12-04T20:29:19.710Z,96423.91
2022-12-04T20:34:19.153Z,96429.72
2022-12-04T20:39:15.171Z,96410.78
2022-12-04T20:54:27.199Z,96432.19
2022-12-04T20:59:22.749Z,96429.78
2022-12-04T21:04:22.045Z,96424.97
2022-12-04T21:09:21.861Z,96424.13
2022-12-04T21:14:43.783Z,96425.72
2022-12-04T21:19:40.742Z,96424.19
2022-12-04T21:24:39.029Z,96413.22
2022-12-04T21:29:33.349Z,96432.75
2022-12-04T21:34:25.854Z,96435.69
2022-12-04T21:39:18.332Z,96429.53
2022-12-04T21:44:19.944Z,96438.06
2022-12-04T21:49:14.105Z,96430.63
2022-12-04T21:54:10.093Z,96448.22
2022-12-04T21:59:02.815Z,96459.81
2022-12-04T22:03:57.423Z,96460.97
2022-12-04T22:08:50.371Z,96475.53
2022-12-04T22:13:42.717Z,96474.91
2022-12-04T22:18:35.605Z,96470.34
2022-12-04T22:23:32.867Z,96486.34
2022-12-04T22:28:25.383Z,96495.09
2022-12-04T22:33:17.694Z,96506.03
2022-12-04T22:38:10.018Z,96516.59
2022-12-04T22:43:07.211Z,96508.25
2022-12-04T22:48:00.031Z,96490.66
2022-12-04T22:52:52.285Z,96508.16
2022-12-04T22:57:44.598Z,96523.31
2022-12-04T23:02:37.994Z,96521.38
2022-12-04T23:07:31.744Z,96519.09
2022-12-04T23:12:26.205Z,96544.91
2022-12-04T23:17:18.124Z,96536.69
2022-12-04T23:22:10.033Z,96555.53
2022-12-04T23:27:02.171Z,96551.91
2022-12-04T23:31:54.276Z,96575.59
2022-12-04T23:36:46.233Z,96582.94
2022-12-04T23:41:38.565Z,96586.50
2022-12-04T23:46:33.687Z,96604.81
2022-12-04T23:51:25.815Z,96609.03
2022-12-04T23:56:27.376Z,96602.25
